Time;durP1;ratioP1;P1;durP2;ratioP2;P2;SDS_P1;SDS_P2;PMS_P1;PMS_P2;Temp;Humidity;BMP_temperature;BMP_pressure;BME280_temperature;BME280_humidity;BME280_pressure;Samples;Min_cycle;Max_cycle;Signal;HPM_P1;HPM_P2
2020/12/20 00:00:39;;;;;;;13.52;9.90;;;10.00;72.40;;;;;;5038037;28;20385;-71
2020/12/20 00:03:05;;;;;;;11.25;8.77;;;10.00;72.30;;;;;;5030447;28;20383;-72
2020/12/20 00:05:31;;;;;;;13.43;10.15;;;10.00;72.40;;;;;;5030474;28;20393;-73
2020/12/20 00:07:56;;;;;;;16.25;10.90;;;10.00;71.70;;;;;;5030266;28;20387;-73
2020/12/20 00:10:23;;;;;;;14.40;9.10;;;10.10;71.50;;;;;;5030487;28;20457;-73
2020/12/20 00:12:49;;;;;;;14.65;9.82;;;10.30;70.50;;;;;;5030608;28;20791;-74
2020/12/20 00:15:16;;;;;;;16.65;9.75;;;10.30;70.00;;;;;;5030342;28;20517;-73
2020/12/20 00:17:49;;;;;;;15.02;10.10;;;10.40;70.00;;;;;;5030082;28;20454;-73
2020/12/20 00:20:15;;;;;;;13.90;9.30;;;10.40;69.50;;;;;;5030355;28;20429;-73
2020/12/20 00:22:40;;;;;;;12.70;8.90;;;10.50;69.90;;;;;;5034969;28;20880;-74
2020/12/20 00:25:06;;;;;;;11.77;8.50;;;10.50;68.20;;;;;;5039924;28;20448;-74
2020/12/20 00:27:32;;;;;;;14.83;9.70;;;10.50;67.90;;;;;;5041247;28;20379;-74
2020/12/20 00:29:57;;;;;;;12.20;9.13;;;10.50;67.70;;;;;;5040250;28;20383;-73
2020/12/20 00:32:23;;;;;;;13.03;8.90;;;10.60;67.00;;;;;;5037549;28;20379;-73
2020/12/20 00:34:48;;;;;;;11.67;8.40;;;10.60;66.60;;;;;;5036653;28;20375;-73
2020/12/20 00:37:14;;;;;;;14.40;8.60;;;10.60;67.10;;;;;;5037267;28;20407;-74
2020/12/20 00:39:39;;;;;;;12.27;8.57;;;10.50;67.90;;;;;;5040593;28;20391;-74
2020/12/20 00:42:06;;;;;;;16.57;9.10;;;10.50;68.20;;;;;;5038068;28;20794;-74
2020/12/20 00:44:33;;;;;;;9.77;7.63;;;10.40;67.90;;;;;;5035386;28;20415;-75
2020/12/20 00:47:00;;;;;;;11.52;8.00;;;10.40;68.80;;;;;;5036128;28;20441;-75
2020/12/20 00:49:27;;;;;;;12.85;8.27;;;10.40;68.70;;;;;;5036247;28;20395;-74
2020/12/20 00:51:57;;;;;;;13.43;8.57;;;10.50;68.90;;;;;;5035367;28;20391;-73
2020/12/20 00:54:23;;;;;;;10.53;8.17;;;10.40;68.50;;;;;;5035806;28;20399;-75
2020/12/20 00:56:49;;;;;;;9.13;7.82;;;10.50;68.20;;;;;;5033541;28;20403;-73
2020/12/20 00:59:14;;;;;;;13.93;8.37;;;10.50;68.50;;;;;;5033397;28;20825;-73
2020/12/20 01:01:40;;;;;;;10.77;7.60;;;10.40;69.30;;;;;;5033184;28;20745;-74
2020/12/20 01:04:06;;;;;;;13.95;8.40;;;10.50;68.30;;;;;;5033414;28;20379;-73
2020/12/20 01:06:31;;;;;;;10.55;7.57;;;10.60;66.50;;;;;;5033906;28;20391;-73
2020/12/20 01:09:00;;;;;;;13.57;8.33;;;10.50;67.60;;;;;;5033669;28;20721;-72
2020/12/20 01:11:26;;;;;;;11.90;8.48;;;10.50;67.40;;;;;;5033810;28;20406;-73
2020/12/20 01:13:52;;;;;;;10.35;7.82;;;10.40;68.40;;;;;;5033139;28;20399;-73
2020/12/20 01:16:19;;;;;;;11.27;8.18;;;10.40;68.20;;;;;;5033089;28;20411;-74
2020/12/20 01:18:45;;;;;;;14.10;8.70;;;10.40;68.10;;;;;;5033077;28;20383;-73
2020/12/20 01:21:11;;;;;;;11.55;7.70;;;10.40;68.60;;;;;;5033085;28;20378;-73
2020/12/20 01:23:37;;;;;;;13.38;8.25;;;10.40;68.40;;;;;;5033034;28;20386;-72
2020/12/20 01:26:03;;;;;;;12.33;8.83;;;10.50;68.60;;;;;;5032950;28;20422;-73
2020/12/20 01:28:30;;;;;;;9.73;7.68;;;10.40;68.30;;;;;;5032767;28;20394;-74
2020/12/20 01:30:56;;;;;;;10.85;8.43;;;10.50;68.10;;;;;;5033231;28;20391;-73
2020/12/20 01:33:22;;;;;;;12.20;8.70;;;10.50;67.30;;;;;;5032718;28;20382;-74
2020/12/20 01:35:48;;;;;;;14.00;8.10;;;10.60;67.00;;;;;;5031750;28;20502;-74
2020/12/20 01:38:13;;;;;;;12.85;7.82;;;10.50;67.50;;;;;;5033060;28;20466;-73
2020/12/20 01:40:39;;;;;;;14.30;7.80;;;10.60;67.50;;;;;;5033290;28;20383;-73
2020/12/20 01:43:05;;;;;;;13.70;8.30;;;10.70;66.60;;;;;;5033124;28;20436;-75
2020/12/20 01:45:30;;;;;;;10.10;7.10;;;10.70;66.20;;;;;;5033175;28;20410;-73
2020/12/20 01:47:56;;;;;;;13.68;7.93;;;10.80;64.50;;;;;;5033301;28;20746;-73
2020/12/20 01:50:22;;;;;;;10.80;6.65;;;10.80;64.80;;;;;;5033309;28;20402;-73
2020/12/20 01:52:48;;;;;;;10.93;6.90;;;10.90;65.40;;;;;;5033348;28;20398;-74
2020/12/20 01:55:17;;;;;;;14.17;7.20;;;10.90;63.60;;;;;;5033339;28;20383;-74
2020/12/20 01:57:42;;;;;;;12.00;7.65;;;11.00;62.80;;;;;;5033023;28;20449;-74
2020/12/20 02:00:08;;;;;;;11.55;7.25;;;11.00;62.20;;;;;;5033355;28;20426;-75
2020/12/20 02:02:34;;;;;;;12.00;7.00;;;11.00;62.50;;;;;;5033211;28;20375;-73
2020/12/20 02:04:59;;;;;;;10.80;7.40;;;11.00;62.70;;;;;;5033768;28;20718;-74
2020/12/20 02:07:25;;;;;;;11.33;7.33;;;10.90;64.10;;;;;;5033427;28;20397;-72
2020/12/20 02:09:50;;;;;;;11.00;6.80;;;11.00;62.70;;;;;;5032889;28;20426;-72
2020/12/20 02:12:16;;;;;;;10.57;7.10;;;11.00;62.50;;;;;;5032311;28;20394;-75
2020/12/20 02:14:42;;;;;;;7.80;6.35;;;11.10;61.40;;;;;;5032040;28;20414;-73
2020/12/20 02:17:07;;;;;;;11.05;7.43;;;11.10;61.90;;;;;;5031835;28;20409;-73
2020/12/20 02:19:33;;;;;;;9.18;6.80;;;11.10;62.40;;;;;;5031958;28;20387;-72
2020/12/20 02:21:59;;;;;;;11.87;7.00;;;11.10;62.70;;;;;;5032166;28;20379;-74
2020/12/20 02:24:25;;;;;;;8.93;7.20;;;11.20;61.10;;;;;;5031980;28;20432;-72
2020/12/20 02:26:51;;;;;;;13.38;6.60;;;11.20;61.30;;;;;;5032037;28;20387;-73
2020/12/20 02:29:17;;;;;;;10.07;7.72;;;11.10;61.90;;;;;;5031872;28;20384;-73
2020/12/20 02:31:42;;;;;;;11.23;7.40;;;11.10;62.20;;;;;;5031826;28;20575;-73
2020/12/20 02:34:09;;;;;;;11.30;7.20;;;11.10;62.30;;;;;;5031783;28;20889;-73
2020/12/20 02:36:36;;;;;;;7.72;6.55;;;11.20;61.00;;;;;;5031877;28;20418;-73
2020/12/20 02:39:01;;;;;;;9.32;7.00;;;11.10;62.10;;;;;;5031518;28;20394;-73
2020/12/20 02:41:27;;;;;;;9.73;7.30;;;11.00;63.00;;;;;;5032117;28;20375;-74
2020/12/20 02:43:52;;;;;;;10.10;6.60;;;11.00;63.40;;;;;;5032540;28;20734;-73
2020/12/20 02:46:18;;;;;;;11.60;7.00;;;11.00;63.50;;;;;;5032865;28;20382;-74
2020/12/20 02:48:45;;;;;;;10.65;6.68;;;10.90;63.80;;;;;;5032712;28;20399;-74
2020/12/20 02:51:12;;;;;;;12.18;7.60;;;10.90;63.80;;;;;;5032962;28;20394;-73
2020/12/20 02:53:37;;;;;;;8.65;6.70;;;10.80;64.80;;;;;;5032998;28;20753;-73
2020/12/20 02:56:03;;;;;;;13.00;7.53;;;10.80;65.40;;;;;;5032791;28;20433;-72
2020/12/20 02:58:28;;;;;;;10.93;7.27;;;10.80;65.80;;;;;;5032741;28;20395;-73
2020/12/20 03:00:54;;;;;;;11.20;7.80;;;10.70;65.20;;;;;;5033029;28;20383;-73
2020/12/20 03:03:19;;;;;;;8.65;7.43;;;10.80;65.40;;;;;;5032764;28;20398;-73
2020/12/20 03:05:45;;;;;;;10.43;7.00;;;10.90;64.60;;;;;;5032320;28;20924;-73
2020/12/20 03:08:10;;;;;;;10.25;7.50;;;10.80;64.80;;;;;;5030932;28;20476;-74
2020/12/20 03:10:36;;;;;;;10.50;7.45;;;10.80;64.80;;;;;;5032005;28;20422;-73
2020/12/20 03:13:02;;;;;;;10.57;7.25;;;10.80;65.10;;;;;;5031863;28;20390;-74
2020/12/20 03:15:28;;;;;;;11.98;8.35;;;10.70;65.40;;;;;;5031997;28;20403;-73
2020/12/20 03:17:53;;;;;;;14.93;8.82;;;10.80;65.30;;;;;;5031788;28;20852;-73
2020/12/20 03:20:19;;;;;;;12.05;8.40;;;10.80;64.90;;;;;;5030618;28;20394;-73
2020/12/20 03:22:44;;;;;;;14.15;8.30;;;10.80;64.90;;;;;;5031957;28;20391;-73
2020/12/20 03:25:10;;;;;;;10.48;7.53;;;10.90;64.80;;;;;;5031788;28;20386;-74
2020/12/20 03:27:36;;;;;;;12.60;7.60;;;10.90;64.60;;;;;;5031774;28;20391;-73
2020/12/20 03:30:03;;;;;;;10.80;7.80;;;10.90;64.40;;;;;;5031991;28;20804;-73
2020/12/20 03:32:28;;;;;;;11.57;8.00;;;10.80;64.90;;;;;;5031784;28;20387;-72
2020/12/20 03:34:54;;;;;;;11.17;7.87;;;10.70;65.60;;;;;;5031811;28;20429;-72
2020/12/20 03:37:20;;;;;;;14.50;9.17;;;10.60;66.00;;;;;;5031652;28;20950;-74
2020/12/20 03:39:45;;;;;;;11.37;8.20;;;10.50;67.30;;;;;;5032399;28;20379;-73
2020/12/20 03:42:11;;;;;;;11.57;8.30;;;10.50;67.70;;;;;;5031637;28;20444;-74
2020/12/20 03:44:36;;;;;;;11.87;8.60;;;10.40;68.60;;;;;;5036152;28;20398;-75
2020/12/20 03:47:02;;;;;;;11.70;8.80;;;10.30;69.40;;;;;;5037485;28;20397;-73
2020/12/20 03:49:28;;;;;;;11.15;8.20;;;10.40;69.40;;;;;;5037224;28;20387;-75
2020/12/20 03:51:53;;;;;;;13.10;8.82;;;10.30;70.10;;;;;;5033106;28;20399;-73
2020/12/20 03:54:19;;;;;;;10.07;8.23;;;10.30;70.30;;;;;;5030496;28;20895;-75
2020/12/20 03:56:44;;;;;;;10.90;7.50;;;10.20;71.30;;;;;;5030522;28;20411;-73
2020/12/20 03:59:10;;;;;;;11.90;9.10;;;10.20;71.00;;;;;;5032592;28;20411;-73
2020/12/20 04:01:35;;;;;;;15.43;9.27;;;10.20;72.10;;;;;;5034532;28;20811;-73
2020/12/20 04:04:01;;;;;;;13.18;9.52;;;10.30;71.60;;;;;;5034672;28;20383;-74
2020/12/20 04:06:26;;;;;;;12.82;8.80;;;10.20;72.30;;;;;;5034421;28;20449;-74
2020/12/20 04:08:52;;;;;;;11.87;8.27;;;10.20;72.70;;;;;;5034350;28;20387;-73
2020/12/20 04:11:17;;;;;;;14.57;9.00;;;10.20;72.60;;;;;;5034486;28;20752;-73
2020/12/20 04:13:43;;;;;;;13.37;9.17;;;10.20;71.90;;;;;;5034363;28;20799;-73
2020/12/20 04:16:09;;;;;;;14.77;8.87;;;10.20;71.60;;;;;;5037690;28;20954;-75
2020/12/20 04:18:36;;;;;;;13.30;8.70;;;10.20;72.50;;;;;;5041827;28;20750;-73
2020/12/20 04:21:03;;;;;;;9.82;7.85;;;10.10;73.50;;;;;;5041594;28;20379;-73
2020/12/20 04:23:29;;;;;;;12.90;8.77;;;10.10;74.00;;;;;;5041627;28;20379;-75
2020/12/20 04:25:54;;;;;;;11.20;8.23;;;10.10;73.40;;;;;;5041338;28;21068;-76
2020/12/20 04:28:20;;;;;;;11.50;8.10;;;10.20;73.00;;;;;;5041229;28;20410;-74
2020/12/20 04:30:46;;;;;;;11.13;8.63;;;10.10;74.00;;;;;;5041167;28;20394;-74
2020/12/20 04:33:11;;;;;;;12.03;8.57;;;10.10;72.80;;;;;;5040909;28;20417;-73
2020/12/20 04:35:37;;;;;;;12.33;8.17;;;10.10;73.90;;;;;;5041138;28;20438;-73
2020/12/20 04:38:03;;;;;;;11.73;9.00;;;10.20;73.60;;;;;;5041569;28;20383;-75
2020/12/20 04:40:29;;;;;;;12.35;8.50;;;10.20;72.50;;;;;;5036948;28;20791;-74
2020/12/20 04:43:09;;;;;;;13.30;9.10;;;10.20;72.60;;;;;;5034018;28;20379;-73
2020/12/20 04:45:35;;;;;;;13.27;9.07;;;10.20;72.30;;;;;;5033900;28;20395;-73
2020/12/20 04:48:02;;;;;;;12.25;8.88;;;10.10;73.40;;;;;;5033658;28;20803;-72
2020/12/20 04:50:32;;;;;;;15.65;8.70;;;10.10;73.60;;;;;;5033473;28;20889;-73
2020/12/20 04:52:59;;;;;;;12.77;8.10;;;10.10;73.80;;;;;;5033660;28;20452;-73
2020/12/20 04:55:26;;;;;;;14.38;9.07;;;10.10;73.70;;;;;;5033439;28;20494;-74
2020/12/20 04:57:53;;;;;;;12.13;8.80;;;10.10;74.50;;;;;;5033463;28;20395;-72
2020/12/20 05:00:19;;;;;;;15.17;9.27;;;10.10;73.70;;;;;;5033391;28;20463;-73
2020/12/20 05:02:45;;;;;;;12.55;9.13;;;10.10;73.10;;;;;;5033548;28;20383;-73
2020/12/20 05:05:10;;;;;;;14.52;9.13;;;10.10;74.10;;;;;;5033505;28;20383;-73
2020/12/20 05:07:36;;;;;;;12.20;8.43;;;10.10;74.50;;;;;;5033236;28;20942;-73
2020/12/20 05:10:04;;;;;;;11.15;8.60;;;10.10;74.60;;;;;;5033288;28;20813;-73
2020/12/20 05:12:34;;;;;;;17.30;9.50;;;10.10;73.40;;;;;;5033258;28;20391;-74
2020/12/20 05:15:20;;;;;;;12.95;9.60;;;10.10;74.00;;;;;;5033126;28;20383;-72
2020/12/20 05:17:45;;;;;;;11.50;8.80;;;10.10;74.60;;;;;;5032999;28;20376;-73
2020/12/20 05:20:24;;;;;;;14.53;8.60;;;10.20;72.10;;;;;;5033243;28;20379;-72
2020/12/20 05:22:53;;;;;;;12.95;9.07;;;10.20;72.70;;;;;;5034426;28;20424;-72
2020/12/20 05:25:20;;;;;;;12.57;8.70;;;10.20;72.60;;;;;;5034682;28;20494;-73
2020/12/20 05:27:45;;;;;;;12.55;9.10;;;10.10;72.70;;;;;;5034018;28;20391;-72
2020/12/20 05:30:18;;;;;;;12.60;8.40;;;10.20;73.20;;;;;;5034447;28;20413;-72
2020/12/20 05:32:45;;;;;;;10.55;8.88;;;10.20;73.00;;;;;;5034058;28;20387;-74
2020/12/20 05:35:15;;;;;;;13.15;9.48;;;10.10;72.90;;;;;;5034107;28;20378;-74
2020/12/20 05:37:42;;;;;;;16.05;9.93;;;10.20;73.30;;;;;;5033554;28;20391;-73
2020/12/20 05:40:15;;;;;;;18.48;8.70;;;10.10;73.30;;;;;;5032666;28;20379;-73
2020/12/20 05:42:52;;;;;;;14.07;10.30;;;10.10;73.10;;;;;;5032656;28;20911;-73
2020/12/20 05:45:19;;;;;;;13.80;9.00;;;10.20;73.80;;;;;;5032896;28;20391;-72
2020/12/20 05:47:45;;;;;;;14.60;9.20;;;10.20;72.50;;;;;;5032482;28;20779;-73
2020/12/20 05:50:13;;;;;;;14.35;9.07;;;10.20;71.90;;;;;;5032717;28;20383;-72
2020/12/20 05:52:39;;;;;;;18.77;10.23;;;10.30;71.30;;;;;;5032537;28;20433;-74
2020/12/20 05:55:12;;;;;;;14.55;10.32;;;10.20;72.20;;;;;;5032530;28;20379;-73
2020/12/20 05:57:38;;;;;;;16.38;10.35;;;10.20;72.60;;;;;;5032296;28;20399;-74
2020/12/20 06:00:04;;;;;;;15.23;9.50;;;10.20;72.50;;;;;;5033859;28;20462;-72
2020/12/20 06:02:30;;;;;;;12.43;9.30;;;10.20;72.50;;;;;;5033421;28;20398;-72
2020/12/20 06:04:56;;;;;;;14.60;10.37;;;10.20;72.40;;;;;;5033758;28;20398;-73
2020/12/20 06:07:26;;;;;;;14.93;9.10;;;10.20;71.90;;;;;;5033300;28;20388;-74
2020/12/20 06:09:59;;;;;;;13.50;9.70;;;10.20;72.00;;;;;;5033558;28;20448;-73
2020/12/20 06:12:29;;;;;;;15.73;9.40;;;10.30;71.30;;;;;;5033977;28;20387;-73
2020/12/20 06:14:57;;;;;;;14.63;9.00;;;10.30;70.40;;;;;;5033575;28;20379;-73
2020/12/20 06:17:24;;;;;;;16.42;10.48;;;10.20;70.90;;;;;;5032985;28;20414;-73
2020/12/20 06:19:52;;;;;;;13.18;8.88;;;10.20;71.60;;;;;;5033421;28;20395;-73
2020/12/20 06:22:22;;;;;;;12.75;9.45;;;10.10;72.10;;;;;;5031458;28;20379;-72
2020/12/20 06:24:50;;;;;;;11.80;9.10;;;10.10;72.40;;;;;;5032942;28;20383;-73
2020/12/20 06:27:17;;;;;;;14.30;9.80;;;10.10;72.90;;;;;;5033450;28;20383;-72
2020/12/20 06:29:45;;;;;;;13.50;8.82;;;10.10;72.80;;;;;;5033362;28;20383;-73
2020/12/20 06:32:15;;;;;;;19.88;9.93;;;10.10;73.00;;;;;;5033003;28;20706;-73
2020/12/20 06:34:42;;;;;;;17.58;10.07;;;10.10;73.50;;;;;;5033152;28;20490;-72
2020/12/20 06:37:09;;;;;;;13.43;9.57;;;10.10;73.00;;;;;;5033781;28;20425;-72
2020/12/20 06:39:37;;;;;;;15.07;10.10;;;10.10;72.90;;;;;;5033701;28;20380;-73
2020/12/20 06:42:03;;;;;;;14.82;10.27;;;10.10;72.40;;;;;;5032931;28;20927;-73
2020/12/20 06:44:29;;;;;;;13.90;10.33;;;10.10;73.90;;;;;;5033036;28;20399;-73
2020/12/20 06:46:54;;;;;;;15.70;10.40;;;10.10;72.80;;;;;;5032405;28;20387;-73
2020/12/20 06:49:40;;;;;;;17.53;10.40;;;10.00;74.10;;;;;;5034593;28;20776;-75
2020/12/20 06:52:18;;;;;;;14.80;9.80;;;10.00;74.50;;;;;;5038891;28;20848;-75
2020/12/20 06:55:10;;;;;;;14.40;9.60;;;10.00;74.90;;;;;;5038171;28;20387;-74
2020/12/20 06:57:56;;;;;;;13.80;9.77;;;10.00;73.90;;;;;;5036199;28;20418;-74
2020/12/20 07:00:40;;;;;;;13.93;9.90;;;10.00;74.10;;;;;;5038961;28;20399;-75
2020/12/20 07:03:07;;;;;;;17.98;10.77;;;10.00;74.50;;;;;;5038822;28;20391;-75
2020/12/20 07:05:43;;;;;;;14.75;10.10;;;9.90;75.40;;;;;;5038177;28;20960;-74
2020/12/20 07:08:30;;;;;;;17.10;11.20;;;9.80;76.50;;;;;;5037847;28;20391;-73
2020/12/20 07:10:56;;;;;;;12.10;9.75;;;9.80;76.70;;;;;;5032279;28;20391;-73
2020/12/20 07:13:39;;;;;;;15.98;10.80;;;9.70;77.50;;;;;;5032157;28;20394;-72
2020/12/20 07:16:09;;;;;;;16.55;10.63;;;9.70;78.00;;;;;;5032053;28;20411;-72
2020/12/20 07:18:42;;;;;;;14.32;11.27;;;9.60;79.30;;;;;;5032399;28;20387;-73
2020/12/20 07:21:32;;;;;;;18.20;11.30;;;9.60;79.40;;;;;;5032283;28;20403;-72
2020/12/20 07:24:17;;;;;;;17.17;11.30;;;9.50;79.70;;;;;;5032166;28;20395;-73
2020/12/20 07:26:53;;;;;;;14.75;10.20;;;9.50;80.10;;;;;;5031906;28;20398;-73
2020/12/20 07:29:20;;;;;;;13.88;10.15;;;9.50;80.20;;;;;;5032024;28;20792;-73
2020/12/20 07:31:49;;;;;;;15.00;10.93;;;9.50;81.10;;;;;;5032309;28;20379;-73
2020/12/20 07:34:15;;;;;;;17.20;11.45;;;9.50;81.00;;;;;;5031052;28;20763;-73
2020/12/20 07:36:40;;;;;;;15.70;11.00;;;9.50;81.20;;;;;;5031522;28;20399;-73
2020/12/20 07:39:07;;;;;;;14.00;10.88;;;9.40;81.70;;;;;;5031855;28;20454;-72
2020/12/20 07:41:33;;;;;;;13.77;10.80;;;9.40;82.00;;;;;;5030376;28;20795;-72
2020/12/20 07:44:04;;;;;;;16.85;11.05;;;9.40;81.80;;;;;;5031663;28;20391;-73
2020/12/20 07:46:30;;;;;;;16.52;11.55;;;9.50;82.00;;;;;;5031991;28;20391;-72
2020/12/20 07:49:04;;;;;;;17.53;12.17;;;9.40;82.40;;;;;;5031594;28;20937;-73
2020/12/20 07:51:30;;;;;;;22.40;11.83;;;9.40;82.70;;;;;;5031762;28;20379;-72
2020/12/20 07:53:58;;;;;;;18.10;12.00;;;9.50;82.70;;;;;;5031467;28;20749;-74
2020/12/20 07:56:26;;;;;;;13.93;10.88;;;9.40;82.30;;;;;;5031400;28;20509;-74
2020/12/20 07:58:53;;;;;;;18.88;12.30;;;9.50;81.30;;;;;;5031534;28;20376;-74
2020/12/20 08:01:19;;;;;;;17.80;11.40;;;9.50;80.90;;;;;;5031355;28;20380;-74
2020/12/20 08:03:46;;;;;;;16.00;12.30;;;9.50;81.40;;;;;;5031183;28;20398;-73
2020/12/20 08:06:13;;;;;;;17.00;11.90;;;9.50;81.20;;;;;;5030756;28;20422;-74
2020/12/20 08:08:40;;;;;;;18.10;11.82;;;9.50;81.10;;;;;;5031378;28;20394;-75
2020/12/20 08:11:26;;;;;;;21.45;12.75;;;9.50;81.70;;;;;;5031162;28;20376;-73
2020/12/20 08:13:54;;;;;;;16.83;12.43;;;9.50;81.70;;;;;;5031587;28;20391;-73
2020/12/20 08:16:27;;;;;;;20.52;12.98;;;9.50;81.70;;;;;;5031826;28;20411;-74
2020/12/20 08:18:54;;;;;;;16.00;12.50;;;9.60;81.20;;;;;;5030341;28;20394;-73
2020/12/20 08:21:26;;;;;;;22.65;13.40;;;9.60;81.10;;;;;;5031853;28;20383;-73
2020/12/20 08:23:53;;;;;;;20.00;12.38;;;9.60;81.70;;;;;;5030481;28;20387;-74
2020/12/20 08:26:34;;;;;;;18.63;12.88;;;9.60;80.30;;;;;;5046832;28;20394;-72
2020/12/20 08:29:01;;;;;;;20.88;13.52;;;9.70;79.90;;;;;;5031657;28;20417;-73
2020/12/20 08:31:29;;;;;;;20.55;12.57;;;9.70;79.90;;;;;;5031300;28;20476;-73
2020/12/20 08:33:55;;;;;;;18.65;12.15;;;9.60;80.90;;;;;;5032161;28;20763;-73
2020/12/20 08:36:21;;;;;;;17.55;12.48;;;9.70;81.00;;;;;;5031869;28;20409;-73
2020/12/20 08:38:48;;;;;;;20.35;13.10;;;9.80;79.80;;;;;;5031223;28;20462;-74
2020/12/20 08:41:26;;;;;;;21.60;13.07;;;9.90;79.00;;;;;;5031959;28;20388;-73
2020/12/20 08:44:13;;;;;;;20.60;12.75;;;9.90;78.00;;;;;;5031477;28;20403;-72
2020/12/20 08:46:43;;;;;;;19.38;13.05;;;9.90;78.40;;;;;;5035437;28;20942;-73
2020/12/20 08:49:22;;;;;;;21.95;13.60;;;9.90;77.90;;;;;;5035425;28;20418;-73
2020/12/20 08:51:49;;;;;;;16.90;13.00;;;10.00;76.70;;;;;;5034863;28;20474;-73
2020/12/20 08:54:26;;;;;;;23.95;13.00;;;10.00;76.60;;;;;;5035323;28;20391;-73
2020/12/20 08:56:57;;;;;;;21.58;13.35;;;10.10;77.10;;;;;;5034616;28;20426;-73
2020/12/20 08:59:42;;;;;;;21.05;14.00;;;10.20;76.00;;;;;;5034684;28;20799;-73
2020/12/20 09:02:10;;;;;;;22.10;14.25;;;10.30;73.80;;;;;;5035038;28;20394;-73
2020/12/20 09:04:37;;;;;;;17.02;12.30;;;10.40;72.60;;;;;;5034667;28;20383;-73
2020/12/20 09:07:08;;;;;;;21.53;12.73;;;10.70;69.60;;;;;;5034494;28;20383;-74
2020/12/20 09:09:35;;;;;;;18.20;12.88;;;10.70;69.40;;;;;;5036203;28;20995;-72
2020/12/20 09:12:19;;;;;;;16.10;12.40;;;10.60;69.20;;;;;;5036316;28;20387;-74
2020/12/20 09:15:01;;;;;;;20.48;12.73;;;10.80;67.60;;;;;;5036605;28;20880;-75
2020/12/20 09:17:35;;;;;;;20.38;13.15;;;10.80;67.30;;;;;;5035668;28;20738;-73
2020/12/20 09:20:01;;;;;;;20.55;13.60;;;10.70;68.20;;;;;;5036046;28;20387;-74
2020/12/20 09:22:40;;;;;;;18.42;12.55;;;10.80;68.20;;;;;;5035352;28;20390;-74
2020/12/20 09:25:06;;;;;;;21.40;13.80;;;10.80;67.00;;;;;;5033065;28;20392;-72
2020/12/20 09:27:32;;;;;;;33.77;19.33;;;10.80;67.30;;;;;;5032591;28;20446;-73
2020/12/20 09:29:59;;;;;;;22.50;14.27;;;10.90;67.30;;;;;;5033245;28;20462;-73
2020/12/20 09:32:25;;;;;;;26.67;17.10;;;10.90;67.20;;;;;;5033114;28;20380;-74
2020/12/20 09:34:50;;;;;;;20.20;12.87;;;11.00;66.10;;;;;;5032859;28;20383;-73
2020/12/20 09:37:16;;;;;;;17.70;11.83;;;11.00;65.60;;;;;;5032752;28;20402;-74
2020/12/20 09:39:55;;;;;;;19.37;12.30;;;11.10;64.90;;;;;;5032786;28;20892;-74
2020/12/20 09:42:20;;;;;;;16.52;11.77;;;11.10;64.40;;;;;;5047838;28;20415;-73
2020/12/20 09:44:46;;;;;;;19.60;13.13;;;11.30;62.80;;;;;;5032237;28;20488;-72
2020/12/20 09:47:11;;;;;;;19.10;13.00;;;11.40;62.30;;;;;;5032307;28;20395;-74
2020/12/20 09:49:37;;;;;;;21.50;12.07;;;11.40;61.70;;;;;;5032423;28;20395;-73
2020/12/20 09:52:04;;;;;;;19.00;12.10;;;11.60;59.90;;;;;;5032334;28;20381;-72
2020/12/20 09:54:29;;;;;;;21.15;12.95;;;11.60;59.30;;;;;;5032293;28;20398;-74
2020/12/20 09:56:55;;;;;;;17.63;11.77;;;11.70;59.40;;;;;;5030907;28;20399;-73
2020/12/20 09:59:20;;;;;;;16.87;11.30;;;11.60;59.40;;;;;;5034926;28;20780;-73
2020/12/20 10:01:46;;;;;;;19.10;11.80;;;11.70;58.70;;;;;;5035193;28;20383;-74
2020/12/20 10:04:11;;;;;;;18.37;11.40;;;11.80;58.00;;;;;;5035560;28;20394;-73
2020/12/20 10:06:37;;;;;;;18.60;11.73;;;11.80;57.20;;;;;;5036119;28;20387;-75
2020/12/20 10:09:02;;;;;;;17.77;12.18;;;11.90;56.60;;;;;;5051387;28;20730;-73
2020/12/20 10:11:28;;;;;;;18.33;11.77;;;11.90;57.10;;;;;;5036764;28;20486;-74
2020/12/20 10:13:54;;;;;;;24.05;13.38;;;11.90;57.60;;;;;;5036371;28;20932;-72
2020/12/20 10:16:20;;;;;;;20.40;12.47;;;11.80;58.00;;;;;;5035842;28;20502;-73
2020/12/20 10:18:46;;;;;;;17.03;11.63;;;11.80;57.20;;;;;;5033291;28;20390;-74
2020/12/20 10:21:17;;;;;;;16.13;11.30;;;11.90;57.80;;;;;;5038219;28;20391;-75
2020/12/20 10:23:43;;;;;;;19.90;12.30;;;11.80;57.60;;;;;;5051725;28;20422;-76
2020/12/20 10:26:12;;;;;;;21.33;13.00;;;11.80;58.00;;;;;;5037772;28;20391;-74
2020/12/20 10:28:38;;;;;;;17.40;11.30;;;11.80;57.90;;;;;;5037581;28;20802;-75
2020/12/20 10:31:03;;;;;;;53.95;32.40;;;11.90;58.40;;;;;;5038528;28;20872;-74
2020/12/20 10:33:29;;;;;;;25.35;15.20;;;12.00;57.50;;;;;;5054142;28;20391;-73
2020/12/20 10:35:55;;;;;;;45.95;26.65;;;12.00;57.20;;;;;;5038398;28;20437;-73
2020/12/20 10:38:20;;;;;;;23.35;13.90;;;12.10;58.70;;;;;;5037746;28;20434;-76
2020/12/20 10:40:46;;;;;;;28.10;17.87;;;12.10;56.40;;;;;;5038841;28;20375;-76
2020/12/20 10:43:11;;;;;;;64.17;37.33;;;12.10;55.30;;;;;;5054494;28;20475;-75
2020/12/20 10:45:37;;;;;;;35.27;22.20;;;12.10;57.10;;;;;;5039012;28;20383;-73
2020/12/20 10:48:02;;;;;;;28.88;18.58;;;12.10;57.30;;;;;;5039049;28;20387;-75
2020/12/20 10:50:28;;;;;;;37.30;23.40;;;12.10;56.50;;;;;;5039963;28;20387;-75
2020/12/20 10:52:53;;;;;;;34.38;20.25;;;12.10;55.80;;;;;;5040451;28;20421;-74
2020/12/20 10:55:19;;;;;;;24.53;14.63;;;12.20;55.90;;;;;;5038101;28;20470;-74
2020/12/20 10:57:44;;;;;;;55.10;34.20;;;12.20;55.30;;;;;;5030680;28;20437;-73
2020/12/20 11:00:10;;;;;;;27.17;16.17;;;12.20;56.20;;;;;;5030982;28;20391;-74
2020/12/20 11:02:36;;;;;;;18.33;11.67;;;12.30;53.30;;;;;;5046004;28;20384;-73
2020/12/20 11:05:01;;;;;;;29.77;18.85;;;12.20;54.10;;;;;;5030955;28;20379;-72
2020/12/20 11:07:27;;;;;;;26.02;15.40;;;12.20;55.30;;;;;;5030504;28;20475;-74
2020/12/20 11:09:53;;;;;;;18.95;11.27;;;12.20;55.00;;;;;;5030798;28;20390;-72
2020/12/20 11:12:18;;;;;;;22.83;10.98;;;12.10;55.70;;;;;;5045976;28;20398;-73
2020/12/20 11:14:44;;;;;;;61.10;36.60;;;12.10;55.90;;;;;;5030217;28;20444;-73
2020/12/20 11:17:09;;;;;;;33.08;20.17;;;12.10;57.10;;;;;;5032703;28;20399;-73
2020/12/20 11:19:35;;;;;;;19.50;12.13;;;12.10;56.50;;;;;;5049293;28;20734;-73
2020/12/20 11:22:01;;;;;;;18.33;10.90;;;12.20;55.10;;;;;;5033655;28;20860;-74
2020/12/20 11:24:26;;;;;;;25.30;16.63;;;12.20;55.20;;;;;;5034223;28;20733;-74
2020/12/20 11:26:54;;;;;;;16.88;10.40;;;12.20;55.40;;;;;;5034749;28;20386;-73
2020/12/20 11:29:20;;;;;;;19.30;10.50;;;12.20;54.90;;;;;;5034953;28;20426;-73
2020/12/20 11:31:46;;;;;;;19.17;10.10;;;12.30;53.90;;;;;;5034160;28;20840;-74
2020/12/20 11:34:12;;;;;;;15.18;9.50;;;12.30;53.90;;;;;;5034104;28;20383;-76
2020/12/20 11:36:40;;;;;;;13.65;8.55;;;12.30;53.70;;;;;;5034474;28;20498;-74
2020/12/20 11:39:08;;;;;;;15.90;8.23;;;12.30;52.80;;;;;;5034098;28;20399;-73
2020/12/20 11:41:34;;;;;;;14.40;8.40;;;12.40;51.80;;;;;;5034108;28;20427;-74
2020/12/20 11:44:00;;;;;;;14.43;8.70;;;12.40;51.90;;;;;;5033780;28;20470;-73
2020/12/20 11:46:26;;;;;;;18.88;8.63;;;12.30;51.90;;;;;;5034592;28;20403;-74
2020/12/20 11:48:52;;;;;;;18.10;8.35;;;12.30;52.60;;;;;;5033513;28;20462;-74
2020/12/20 11:51:19;;;;;;;16.95;9.00;;;12.40;52.50;;;;;;5033753;28;20402;-74
2020/12/20 11:53:44;;;;;;;16.58;9.13;;;12.40;52.80;;;;;;5034160;28;20410;-74
2020/12/20 11:56:12;;;;;;;17.70;10.05;;;12.30;52.80;;;;;;5033715;28;20407;-75
2020/12/20 11:58:38;;;;;;;22.52;9.88;;;12.30;53.30;;;;;;5034666;28;20748;-73
2020/12/20 12:01:05;;;;;;;16.42;8.45;;;12.40;52.80;;;;;;5033693;28;20394;-75
2020/12/20 12:03:31;;;;;;;16.00;8.45;;;12.40;52.00;;;;;;5033865;28;20395;-74
2020/12/20 12:05:58;;;;;;;15.48;8.88;;;12.40;51.90;;;;;;5033820;28;20758;-73
2020/12/20 12:08:24;;;;;;;15.20;8.00;;;12.40;51.90;;;;;;5034578;28;20391;-74
2020/12/20 12:10:49;;;;;;;18.48;7.70;;;12.60;50.60;;;;;;5037144;28;20498;-73
2020/12/20 12:13:16;;;;;;;12.15;7.93;;;12.60;50.10;;;;;;5037483;28;20461;-72
2020/12/20 12:15:42;;;;;;;14.80;7.90;;;12.70;49.20;;;;;;5034569;28;20383;-73
2020/12/20 12:18:12;;;;;;;16.40;7.80;;;12.70;48.60;;;;;;5030455;28;20913;-76
2020/12/20 12:20:37;;;;;;;13.43;7.55;;;12.70;48.90;;;;;;5033548;28;20892;-75
2020/12/20 12:23:03;;;;;;;15.00;7.70;;;12.60;49.10;;;;;;5033982;28;20472;-74
2020/12/20 12:25:29;;;;;;;12.80;7.00;;;12.60;49.50;;;;;;5033858;28;20382;-74
2020/12/20 12:27:55;;;;;;;14.90;8.20;;;12.70;49.20;;;;;;5033858;28;20437;-73
2020/12/20 12:30:21;;;;;;;13.90;7.30;;;12.70;49.30;;;;;;5033886;28;20383;-73
2020/12/20 12:32:47;;;;;;;16.35;7.88;;;12.80;48.10;;;;;;5033889;28;20402;-74
2020/12/20 12:35:13;;;;;;;16.60;8.50;;;12.80;48.30;;;;;;5033706;28;20733;-73
2020/12/20 12:37:38;;;;;;;16.95;8.52;;;12.80;48.30;;;;;;5033339;28;20499;-73